sensor_id;sensor_type;location;lat;lon;timestamp;P1;durP1;ratioP1;P2;durP2;ratioP2
35562;SDS011;21665;40.108;18.302;2023-07-09T04:26:38;6.82;;;6.18;;
35562;SDS011;21665;40.108;18.302;2023-07-09T04:29:09;8.93;;;7.30;;
35562;SDS011;21665;40.108;18.302;2023-07-09T04:31:37;9.38;;;6.32;;
35562;SDS011;21665;40.108;18.302;2023-07-09T04:34:03;10.63;;;6.60;;
35562;SDS011;21665;40.108;18.302;2023-07-09T04:37:11;8.15;;;7.35;;
35562;SDS011;21665;40.108;18.302;2023-07-09T04:39:40;13.63;;;7.53;;
35562;SDS011;21665;40.108;18.302;2023-07-09T04:42:16;13.07;;;7.78;;
35562;SDS011;21665;40.108;18.302;2023-07-09T04:45:07;9.48;;;8.70;;
35562;SDS011;21665;40.108;18.302;2023-07-09T04:47:38;11.60;;;9.40;;
35562;SDS011;21665;40.108;18.302;2023-07-09T04:51:11;11.23;;;10.10;;
35562;SDS011;21665;40.108;18.302;2023-07-09T05:14:53;19.40;;;18.00;;
35562;SDS011;21665;40.108;18.302;2023-07-09T05:36:28;20.73;;;19.17;;
35562;SDS011;21665;40.108;18.302;2023-07-09T08:58:56;22.50;;;20.80;;
35562;SDS011;21665;40.108;18.302;2023-07-09T09:01:44;22.70;;;21.20;;
35562;SDS011;21665;40.108;18.302;2023-07-09T09:06:52;21.95;;;20.48;;
35562;SDS011;21665;40.108;18.302;2023-07-09T09:09:44;22.45;;;20.63;;
35562;SDS011;21665;40.108;18.302;2023-07-09T09:12:26;22.45;;;20.92;;
35562;SDS011;21665;40.108;18.302;2023-07-09T09:15:10;22.30;;;20.80;;
35562;SDS011;21665;40.108;18.302;2023-07-09T09:17:41;22.25;;;20.83;;
35562;SDS011;21665;40.108;18.302;2023-07-09T09:20:17;22.02;;;20.52;;
35562;SDS011;21665;40.108;18.302;2023-07-09T09:22:54;22.60;;;20.80;;
35562;SDS011;21665;40.108;18.302;2023-07-09T09:25:37;22.38;;;20.70;;
35562;SDS011;21665;40.108;18.302;2023-07-09T09:28:07;22.70;;;21.00;;
35562;SDS011;21665;40.108;18.302;2023-07-09T09:30:34;21.60;;;20.05;;
35562;SDS011;21665;40.108;18.302;2023-07-09T09:33:01;21.98;;;20.48;;
35562;SDS011;21665;40.108;18.302;2023-07-09T09:35:37;22.27;;;20.98;;
35562;SDS011;21665;40.108;18.302;2023-07-09T09:38:13;23.70;;;22.00;;
35562;SDS011;21665;40.108;18.302;2023-07-09T09:40:43;23.00;;;21.42;;
35562;SDS011;21665;40.108;18.302;2023-07-09T09:43:16;23.63;;;21.98;;
35562;SDS011;21665;40.108;18.302;2023-07-09T09:45:48;22.60;;;21.00;;
35562;SDS011;21665;40.108;18.302;2023-07-09T09:48:19;22.05;;;20.55;;
35562;SDS011;21665;40.108;18.302;2023-07-09T09:50:57;22.15;;;20.65;;
35562;SDS011;21665;40.108;18.302;2023-07-09T09:53:28;21.45;;;20.00;;
35562;SDS011;21665;40.108;18.302;2023-07-09T09:55:56;21.80;;;20.40;;
35562;SDS011;21665;40.108;18.302;2023-07-09T09:58:26;21.00;;;19.50;;
35562;SDS011;21665;40.108;18.302;2023-07-09T10:00:55;21.10;;;19.48;;
35562;SDS011;21665;40.108;18.302;2023-07-09T10:03:33;20.23;;;18.92;;
35562;SDS011;21665;40.108;18.302;2023-07-09T10:06:03;20.08;;;18.88;;
35562;SDS011;21665;40.108;18.302;2023-07-09T10:08:46;20.33;;;18.95;;
35562;SDS011;21665;40.108;18.302;2023-07-09T10:14:17;18.90;;;17.73;;
35562;SDS011;21665;40.108;18.302;2023-07-09T10:16:58;19.95;;;18.67;;
35562;SDS011;21665;40.108;18.302;2023-07-09T10:22:57;20.85;;;19.35;;
35562;SDS011;21665;40.108;18.302;2023-07-09T10:25:48;21.13;;;19.50;;
35562;SDS011;21665;40.108;18.302;2023-07-09T10:28:45;21.45;;;20.00;;
35562;SDS011;21665;40.108;18.302;2023-07-09T10:31:38;20.73;;;19.35;;
35562;SDS011;21665;40.108;18.302;2023-07-09T10:37:27;21.00;;;19.50;;
35562;SDS011;21665;40.108;18.302;2023-07-09T10:40:12;20.42;;;19.02;;
35562;SDS011;21665;40.108;18.302;2023-07-09T10:42:50;20.60;;;19.17;;
35562;SDS011;21665;40.108;18.302;2023-07-09T10:45:44;20.70;;;19.20;;
35562;SDS011;21665;40.108;18.302;2023-07-09T10:48:16;21.05;;;19.55;;
35562;SDS011;21665;40.108;18.302;2023-07-09T10:50:56;20.92;;;19.23;;
35562;SDS011;21665;40.108;18.302;2023-07-09T10:53:36;20.48;;;19.05;;
35562;SDS011;21665;40.108;18.302;2023-07-09T10:56:16;22.27;;;20.40;;
35562;SDS011;21665;40.108;18.302;2023-07-09T11:01:41;21.30;;;19.90;;
35562;SDS011;21665;40.108;18.302;2023-07-09T11:04:57;20.98;;;19.60;;
35562;SDS011;21665;40.108;18.302;2023-07-09T11:07:06;21.92;;;20.33;;
35562;SDS011;21665;40.108;18.302;2023-07-09T11:09:43;21.20;;;19.70;;
35562;SDS011;21665;40.108;18.302;2023-07-09T11:12:13;22.02;;;20.40;;
35562;SDS011;21665;40.108;18.302;2023-07-09T11:14:51;21.65;;;19.73;;
35562;SDS011;21665;40.108;18.302;2023-07-09T11:17:26;22.83;;;21.00;;
35562;SDS011;21665;40.108;18.302;2023-07-09T11:19:54;22.55;;;20.88;;
35562;SDS011;21665;40.108;18.302;2023-07-09T11:22:26;22.20;;;20.60;;
35562;SDS011;21665;40.108;18.302;2023-07-09T11:25:13;22.80;;;20.90;;
35562;SDS011;21665;40.108;18.302;2023-07-09T11:27:50;21.35;;;19.92;;
35562;SDS011;21665;40.108;18.302;2023-07-09T11:30:23;22.33;;;20.73;;
35562;SDS011;21665;40.108;18.302;2023-07-09T11:32:54;22.25;;;20.58;;
35562;SDS011;21665;40.108;18.302;2023-07-09T11:35:27;21.38;;;19.95;;
35562;SDS011;21665;40.108;18.302;2023-07-09T11:38:18;23.40;;;21.50;;
35562;SDS011;21665;40.108;18.302;2023-07-09T11:40:50;22.38;;;20.60;;
35562;SDS011;21665;40.108;18.302;2023-07-09T11:43:32;21.88;;;20.33;;
35562;SDS011;21665;40.108;18.302;2023-07-09T11:46:21;21.85;;;20.35;;
35562;SDS011;21665;40.108;18.302;2023-07-09T11:48:52;22.50;;;20.90;;
35562;SDS011;21665;40.108;18.302;2023-07-09T11:51:24;21.05;;;19.55;;
35562;SDS011;21665;40.108;18.302;2023-07-09T11:54:12;22.83;;;21.25;;
35562;SDS011;21665;40.108;18.302;2023-07-09T11:56:39;21.90;;;20.17;;
35562;SDS011;21665;40.108;18.302;2023-07-09T11:59:05;23.83;;;21.67;;
35562;SDS011;21665;40.108;18.302;2023-07-09T12:01:45;22.77;;;21.15;;
35562;SDS011;21665;40.108;18.302;2023-07-09T12:04:14;22.80;;;21.35;;
35562;SDS011;21665;40.108;18.302;2023-07-09T12:06:49;23.55;;;21.92;;
35562;SDS011;21665;40.108;18.302;2023-07-09T12:09:29;23.10;;;21.52;;
35562;SDS011;21665;40.108;18.302;2023-07-09T12:11:58;24.48;;;22.45;;
35562;SDS011;21665;40.108;18.302;2023-07-09T12:14:24;23.50;;;22.02;;
35562;SDS011;21665;40.108;18.302;2023-07-09T12:16:53;24.40;;;22.25;;
35562;SDS011;21665;40.108;18.302;2023-07-09T12:19:30;22.90;;;21.40;;
35562;SDS011;21665;40.108;18.302;2023-07-09T12:21:57;23.13;;;21.52;;
35562;SDS011;21665;40.108;18.302;2023-07-09T12:24:25;23.67;;;21.98;;
35562;SDS011;21665;40.108;18.302;2023-07-09T12:26:55;23.02;;;21.67;;
35562;SDS011;21665;40.108;18.302;2023-07-09T12:29:29;23.17;;;21.58;;
35562;SDS011;21665;40.108;18.302;2023-07-09T12:32:02;23.63;;;21.75;;
35562;SDS011;21665;40.108;18.302;2023-07-09T12:34:36;23.55;;;21.95;;
35562;SDS011;21665;40.108;18.302;2023-07-09T12:37:02;22.70;;;21.30;;
35562;SDS011;21665;40.108;18.302;2023-07-09T12:39:29;22.48;;;20.85;;
35562;SDS011;21665;40.108;18.302;2023-07-09T12:41:59;22.88;;;21.30;;
35562;SDS011;21665;40.108;18.302;2023-07-09T12:44:29;22.75;;;21.13;;
35562;SDS011;21665;40.108;18.302;2023-07-09T12:47:01;23.40;;;21.60;;
35562;SDS011;21665;40.108;18.302;2023-07-09T12:49:29;22.65;;;21.20;;
35562;SDS011;21665;40.108;18.302;2023-07-09T12:52:08;22.58;;;21.02;;
35562;SDS011;21665;40.108;18.302;2023-07-09T12:54:59;22.80;;;21.00;;
35562;SDS011;21665;40.108;18.302;2023-07-09T12:57:28;22.17;;;20.77;;
35562;SDS011;21665;40.108;18.302;2023-07-09T12:59:56;22.90;;;21.30;;
35562;SDS011;21665;40.108;18.302;2023-07-09T13:02:23;22.23;;;20.77;;
35562;SDS011;21665;40.108;18.302;2023-07-09T13:04:59;22.67;;;21.17;;
35562;SDS011;21665;40.108;18.302;2023-07-09T13:07:30;23.05;;;21.65;;
35562;SDS011;21665;40.108;18.302;2023-07-09T13:10:06;23.05;;;21.55;;
35562;SDS011;21665;40.108;18.302;2023-07-09T13:12:41;21.95;;;20.55;;
35562;SDS011;21665;40.108;18.302;2023-07-09T13:15:40;22.73;;;21.20;;
35562;SDS011;21665;40.108;18.302;2023-07-09T13:18:15;22.42;;;20.92;;
35562;SDS011;21665;40.108;18.302;2023-07-09T13:20:43;22.08;;;20.65;;
35562;SDS011;21665;40.108;18.302;2023-07-09T13:23:14;22.90;;;21.40;;
35562;SDS011;21665;40.108;18.302;2023-07-09T13:25:43;22.98;;;21.30;;
35562;SDS011;21665;40.108;18.302;2023-07-09T13:28:21;23.17;;;21.58;;
35562;SDS011;21665;40.108;18.302;2023-07-09T13:30:56;22.55;;;21.13;;
35562;SDS011;21665;40.108;18.302;2023-07-09T13:33:25;21.95;;;20.45;;
35562;SDS011;21665;40.108;18.302;2023-07-09T13:35:52;21.48;;;20.15;;
35562;SDS011;21665;40.108;18.302;2023-07-09T13:38:21;21.88;;;20.42;;
35562;SDS011;21665;40.108;18.302;2023-07-09T13:40:50;22.15;;;20.58;;
35562;SDS011;21665;40.108;18.302;2023-07-09T13:43:30;22.08;;;20.60;;
35562;SDS011;21665;40.108;18.302;2023-07-09T13:45:59;22.50;;;20.92;;
35562;SDS011;21665;40.108;18.302;2023-07-09T13:48:30;22.08;;;20.52;;
35562;SDS011;21665;40.108;18.302;2023-07-09T13:50:58;22.23;;;20.52;;
35562;SDS011;21665;40.108;18.302;2023-07-09T13:53:26;21.73;;;20.42;;
35562;SDS011;21665;40.108;18.302;2023-07-09T13:55:58;23.23;;;21.42;;
35562;SDS011;21665;40.108;18.302;2023-07-09T13:58:25;22.10;;;20.60;;
35562;SDS011;21665;40.108;18.302;2023-07-09T14:00:57;22.05;;;20.75;;
35562;SDS011;21665;40.108;18.302;2023-07-09T14:03:31;22.75;;;21.13;;
35562;SDS011;21665;40.108;18.302;2023-07-09T14:05:59;23.48;;;21.65;;
35562;SDS011;21665;40.108;18.302;2023-07-09T14:08:26;23.13;;;21.33;;
35562;SDS011;21665;40.108;18.302;2023-07-09T14:10:54;23.10;;;21.23;;
35562;SDS011;21665;40.108;18.302;2023-07-09T14:13:21;23.02;;;21.52;;
35562;SDS011;21665;40.108;18.302;2023-07-09T14:15:49;22.98;;;21.40;;
35562;SDS011;21665;40.108;18.302;2023-07-09T14:18:16;22.63;;;21.23;;
35562;SDS011;21665;40.108;18.302;2023-07-09T14:20:49;22.83;;;21.33;;
35562;SDS011;21665;40.108;18.302;2023-07-09T14:23:17;22.58;;;21.08;;
35562;SDS011;21665;40.108;18.302;2023-07-09T14:25:44;22.98;;;21.13;;
35562;SDS011;21665;40.108;18.302;2023-07-09T14:28:12;21.85;;;20.42;;
35562;SDS011;21665;40.108;18.302;2023-07-09T14:30:42;21.42;;;20.02;;
35562;SDS011;21665;40.108;18.302;2023-07-09T14:33:15;21.67;;;20.23;;
35562;SDS011;21665;40.108;18.302;2023-07-09T14:35:44;22.55;;;20.77;;
35562;SDS011;21665;40.108;18.302;2023-07-09T14:38:24;21.67;;;20.08;;
35562;SDS011;21665;40.108;18.302;2023-07-09T14:40:55;21.08;;;19.67;;
35562;SDS011;21665;40.108;18.302;2023-07-09T14:45:51;21.00;;;19.73;;
35562;SDS011;21665;40.108;18.302;2023-07-09T14:48:18;21.35;;;19.95;;
35562;SDS011;21665;40.108;18.302;2023-07-09T14:50:46;21.30;;;20.00;;
35562;SDS011;21665;40.108;18.302;2023-07-09T14:53:21;21.73;;;20.33;;
35562;SDS011;21665;40.108;18.302;2023-07-09T14:55:52;21.38;;;20.17;;
35562;SDS011;21665;40.108;18.302;2023-07-09T14:58:22;21.60;;;20.10;;
35562;SDS011;21665;40.108;18.302;2023-07-09T15:00:49;21.27;;;20.05;;
35562;SDS011;21665;40.108;18.302;2023-07-09T15:03:21;21.83;;;20.40;;
35562;SDS011;21665;40.108;18.302;2023-07-09T15:05:49;21.93;;;20.63;;
35562;SDS011;21665;40.108;18.302;2023-07-09T15:08:18;22.00;;;20.55;;
35562;SDS011;21665;40.108;18.302;2023-07-09T15:10:53;21.77;;;20.48;;
35562;SDS011;21665;40.108;18.302;2023-07-09T15:13:31;22.95;;;21.55;;
35562;SDS011;21665;40.108;18.302;2023-07-09T15:16:00;21.85;;;20.63;;
35562;SDS011;21665;40.108;18.302;2023-07-09T15:18:31;22.67;;;21.17;;
35562;SDS011;21665;40.108;18.302;2023-07-09T15:21:03;22.40;;;21.00;;
35562;SDS011;21665;40.108;18.302;2023-07-09T15:23:29;22.90;;;21.40;;
35562;SDS011;21665;40.108;18.302;2023-07-09T15:26:00;22.95;;;21.48;;
35562;SDS011;21665;40.108;18.302;2023-07-09T15:28:27;23.23;;;21.75;;
35562;SDS011;21665;40.108;18.302;2023-07-09T15:30:54;22.67;;;21.23;;
35562;SDS011;21665;40.108;18.302;2023-07-09T15:33:20;24.13;;;22.40;;
35562;SDS011;21665;40.108;18.302;2023-07-09T15:35:48;23.00;;;21.50;;
35562;SDS011;21665;40.108;18.302;2023-07-09T15:40:56;23.08;;;21.55;;
35562;SDS011;21665;40.108;18.302;2023-07-09T15:43:24;22.83;;;21.33;;
35562;SDS011;21665;40.108;18.302;2023-07-09T15:45:51;22.92;;;21.50;;
35562;SDS011;21665;40.108;18.302;2023-07-09T15:48:22;22.33;;;20.80;;
35562;SDS011;21665;40.108;18.302;2023-07-09T15:50:56;22.08;;;20.67;;
35562;SDS011;21665;40.108;18.302;2023-07-09T15:53:22;22.42;;;20.88;;
35562;SDS011;21665;40.108;18.302;2023-07-09T15:55:49;22.83;;;21.42;;
35562;SDS011;21665;40.108;18.302;2023-07-09T15:58:27;22.48;;;21.08;;
35562;SDS011;21665;40.108;18.302;2023-07-09T16:01:12;22.50;;;21.05;;
35562;SDS011;21665;40.108;18.302;2023-07-09T16:03:43;22.52;;;20.90;;
35562;SDS011;21665;40.108;18.302;2023-07-09T16:06:18;22.40;;;20.90;;
35562;SDS011;21665;40.108;18.302;2023-07-09T16:08:45;22.10;;;20.63;;
35562;SDS011;21665;40.108;18.302;2023-07-09T16:11:21;21.63;;;20.25;;
35562;SDS011;21665;40.108;18.302;2023-07-09T16:13:50;21.58;;;20.17;;
35562;SDS011;21665;40.108;18.302;2023-07-09T16:16:21;22.98;;;21.30;;
35562;SDS011;21665;40.108;18.302;2023-07-09T16:18:49;22.05;;;20.38;;
35562;SDS011;21665;40.108;18.302;2023-07-09T16:21:24;21.67;;;20.00;;
35562;SDS011;21665;40.108;18.302;2023-07-09T16:23:53;21.95;;;20.55;;
35562;SDS011;21665;40.108;18.302;2023-07-09T16:26:21;21.55;;;20.17;;
35562;SDS011;21665;40.108;18.302;2023-07-09T16:28:48;21.63;;;20.23;;
35562;SDS011;21665;40.108;18.302;2023-07-09T16:31:17;21.45;;;20.15;;
35562;SDS011;21665;40.108;18.302;2023-07-09T16:33:44;22.17;;;20.63;;
35562;SDS011;21665;40.108;18.302;2023-07-09T16:36:13;22.05;;;20.60;;
35562;SDS011;21665;40.108;18.302;2023-07-09T16:38:40;21.80;;;20.10;;
35562;SDS011;21665;40.108;18.302;2023-07-09T16:41:10;20.88;;;19.67;;
35562;SDS011;21665;40.108;18.302;2023-07-09T16:43:42;22.75;;;21.10;;
35562;SDS011;21665;40.108;18.302;2023-07-09T16:46:12;21.45;;;20.05;;
35562;SDS011;21665;40.108;18.302;2023-07-09T16:48:49;22.08;;;20.48;;
35562;SDS011;21665;40.108;18.302;2023-07-09T16:51:25;22.13;;;20.70;;
35562;SDS011;21665;40.108;18.302;2023-07-09T16:53:52;21.95;;;20.60;;
35562;SDS011;21665;40.108;18.302;2023-07-09T16:56:18;21.95;;;20.45;;
35562;SDS011;21665;40.108;18.302;2023-07-09T16:58:46;21.70;;;20.05;;
35562;SDS011;21665;40.108;18.302;2023-07-09T17:01:13;20.55;;;19.25;;
35562;SDS011;21665;40.108;18.302;2023-07-09T17:03:40;22.05;;;20.55;;
35562;SDS011;21665;40.108;18.302;2023-07-09T17:06:07;21.83;;;20.23;;
35562;SDS011;21665;40.108;18.302;2023-07-09T17:08:33;22.05;;;20.63;;
35562;SDS011;21665;40.108;18.302;2023-07-09T17:11:01;21.65;;;20.15;;
35562;SDS011;21665;40.108;18.302;2023-07-09T17:13:29;20.55;;;19.25;;
35562;SDS011;21665;40.108;18.302;2023-07-09T17:15:56;21.73;;;20.20;;
35562;SDS011;21665;40.108;18.302;2023-07-09T17:18:23;21.35;;;20.05;;
35562;SDS011;21665;40.108;18.302;2023-07-09T17:20:54;21.50;;;19.90;;
35562;SDS011;21665;40.108;18.302;2023-07-09T17:23:23;21.00;;;19.70;;
35562;SDS011;21665;40.108;18.302;2023-07-09T17:25:53;21.83;;;20.25;;
35562;SDS011;21665;40.108;18.302;2023-07-09T17:28:22;20.85;;;19.45;;
35562;SDS011;21665;40.108;18.302;2023-07-09T17:30:51;21.63;;;19.92;;
35562;SDS011;21665;40.108;18.302;2023-07-09T17:33:18;21.25;;;19.70;;
35562;SDS011;21665;40.108;18.302;2023-07-09T17:35:46;20.67;;;19.15;;
35562;SDS011;21665;40.108;18.302;2023-07-09T17:38:16;20.98;;;19.13;;
35562;SDS011;21665;40.108;18.302;2023-07-09T17:40:46;20.25;;;18.95;;
35562;SDS011;21665;40.108;18.302;2023-07-09T17:43:22;19.08;;;17.95;;
35562;SDS011;21665;40.108;18.302;2023-07-09T17:45:51;19.88;;;18.58;;
35562;SDS011;21665;40.108;18.302;2023-07-09T17:48:25;19.52;;;18.33;;
35562;SDS011;21665;40.108;18.302;2023-07-09T17:50:55;19.50;;;18.13;;
35562;SDS011;21665;40.108;18.302;2023-07-09T17:53:26;18.10;;;17.10;;
35562;SDS011;21665;40.108;18.302;2023-07-09T17:55:58;18.33;;;17.23;;
35562;SDS011;21665;40.108;18.302;2023-07-09T17:58:30;19.13;;;17.83;;
35562;SDS011;21665;40.108;18.302;2023-07-09T18:01:02;19.20;;;17.83;;
35562;SDS011;21665;40.108;18.302;2023-07-09T18:03:31;19.17;;;17.77;;
35562;SDS011;21665;40.108;18.302;2023-07-09T18:05:57;18.90;;;17.70;;
35562;SDS011;21665;40.108;18.302;2023-07-09T18:08:24;18.77;;;17.48;;
35562;SDS011;21665;40.108;18.302;2023-07-09T18:10:52;19.05;;;17.73;;
35562;SDS011;21665;40.108;18.302;2023-07-09T18:13:20;19.15;;;17.85;;
35562;SDS011;21665;40.108;18.302;2023-07-09T18:15:49;19.85;;;18.35;;
35562;SDS011;21665;40.108;18.302;2023-07-09T18:18:18;18.63;;;17.17;;
35562;SDS011;21665;40.108;18.302;2023-07-09T18:20:48;19.10;;;17.90;;
35562;SDS011;21665;40.108;18.302;2023-07-09T18:23:15;18.80;;;17.60;;
35562;SDS011;21665;40.108;18.302;2023-07-09T18:25:43;19.00;;;17.58;;
35562;SDS011;21665;40.108;18.302;2023-07-09T18:28:18;19.00;;;17.80;;
35562;SDS011;21665;40.108;18.302;2023-07-09T18:30:52;19.20;;;17.77;;
35562;SDS011;21665;40.108;18.302;2023-07-09T18:33:19;19.13;;;17.55;;
35562;SDS011;21665;40.108;18.302;2023-07-09T18:35:45;18.98;;;17.85;;
35562;SDS011;21665;40.108;18.302;2023-07-09T18:38:12;19.08;;;17.48;;
35562;SDS011;21665;40.108;18.302;2023-07-09T18:40:42;18.33;;;17.00;;
35562;SDS011;21665;40.108;18.302;2023-07-09T18:43:10;18.17;;;17.08;;
35562;SDS011;21665;40.108;18.302;2023-07-09T18:45:43;18.42;;;16.98;;
35562;SDS011;21665;40.108;18.302;2023-07-09T18:48:17;17.95;;;16.80;;
35562;SDS011;21665;40.108;18.302;2023-07-09T18:50:50;17.70;;;16.67;;
35562;SDS011;21665;40.108;18.302;2023-07-09T18:53:21;18.42;;;16.92;;
35562;SDS011;21665;40.108;18.302;2023-07-09T18:55:49;18.15;;;16.90;;
35562;SDS011;21665;40.108;18.302;2023-07-09T18:58:34;18.15;;;16.95;;
35562;SDS011;21665;40.108;18.302;2023-07-09T19:01:15;18.17;;;17.08;;
35562;SDS011;21665;40.108;18.302;2023-07-09T19:03:47;18.98;;;17.55;;
35562;SDS011;21665;40.108;18.302;2023-07-09T19:06:16;17.73;;;16.42;;
35562;SDS011;21665;40.108;18.302;2023-07-09T19:08:43;17.40;;;16.08;;
35562;SDS011;21665;40.108;18.302;2023-07-09T19:11:09;17.85;;;16.45;;
35562;SDS011;21665;40.108;18.302;2023-07-09T19:13:36;16.40;;;15.20;;
35562;SDS011;21665;40.108;18.302;2023-07-09T19:16:02;16.15;;;14.90;;
35562;SDS011;21665;40.108;18.302;2023-07-09T19:18:34;18.55;;;14.07;;
35562;SDS011;21665;40.108;18.302;2023-07-09T19:21:03;14.88;;;13.90;;
35562;SDS011;21665;40.108;18.302;2023-07-09T19:23:31;14.38;;;13.13;;
35562;SDS011;21665;40.108;18.302;2023-07-09T19:25:57;14.60;;;13.25;;
35562;SDS011;21665;40.108;18.302;2023-07-09T19:28:24;13.48;;;12.23;;
35562;SDS011;21665;40.108;18.302;2023-07-09T19:30:51;16.38;;;12.07;;
35562;SDS011;21665;40.108;18.302;2023-07-09T19:33:20;13.32;;;12.23;;
35562;SDS011;21665;40.108;18.302;2023-07-09T19:35:49;13.75;;;12.20;;
35562;SDS011;21665;40.108;18.302;2023-07-09T19:38:15;13.20;;;11.93;;
35562;SDS011;21665;40.108;18.302;2023-07-09T19:40:45;12.93;;;11.80;;
35562;SDS011;21665;40.108;18.302;2023-07-09T19:43:11;12.13;;;11.13;;
35562;SDS011;21665;40.108;18.302;2023-07-09T19:45:43;11.07;;;10.00;;
35562;SDS011;21665;40.108;18.302;2023-07-09T19:48:14;10.85;;;8.88;;
35562;SDS011;21665;40.108;18.302;2023-07-09T19:50:43;9.88;;;7.63;;
35562;SDS011;21665;40.108;18.302;2023-07-09T19:53:17;6.80;;;6.25;;
35562;SDS011;21665;40.108;18.302;2023-07-09T19:55:45;6.25;;;5.75;;
35562;SDS011;21665;40.108;18.302;2023-07-09T19:58:12;6.20;;;5.60;;
35562;SDS011;21665;40.108;18.302;2023-07-09T20:00:39;7.75;;;5.05;;
35562;SDS011;21665;40.108;18.302;2023-07-09T20:03:08;6.40;;;5.15;;
35562;SDS011;21665;40.108;18.302;2023-07-09T20:05:52;5.28;;;4.78;;
35562;SDS011;21665;40.108;18.302;2023-07-09T20:08:19;7.32;;;5.38;;
35562;SDS011;21665;40.108;18.302;2023-07-09T20:10:50;5.47;;;4.68;;
35562;SDS011;21665;40.108;18.302;2023-07-09T20:13:21;6.50;;;4.80;;
35562;SDS011;21665;40.108;18.302;2023-07-09T20:15:53;7.78;;;4.20;;
35562;SDS011;21665;40.108;18.302;2023-07-09T20:18:21;7.80;;;4.90;;
35562;SDS011;21665;40.108;18.302;2023-07-09T20:20:52;6.75;;;4.32;;
35562;SDS011;21665;40.108;18.302;2023-07-09T20:23:22;5.75;;;4.55;;
35562;SDS011;21665;40.108;18.302;2023-07-09T20:25:48;5.55;;;4.00;;
35562;SDS011;21665;40.108;18.302;2023-07-09T20:28:22;9.30;;;5.05;;
35562;SDS011;21665;40.108;18.302;2023-07-09T20:30:51;7.82;;;4.30;;
35562;SDS011;21665;40.108;18.302;2023-07-09T20:33:22;7.40;;;4.25;;
35562;SDS011;21665;40.108;18.302;2023-07-09T20:35:49;9.23;;;4.50;;
35562;SDS011;21665;40.108;18.302;2023-07-09T20:38:20;9.05;;;4.97;;
35562;SDS011;21665;40.108;18.302;2023-07-09T20:40:50;9.88;;;4.63;;
35562;SDS011;21665;40.108;18.302;2023-07-09T20:43:21;6.25;;;3.83;;
35562;SDS011;21665;40.108;18.302;2023-07-09T20:45:53;7.88;;;3.90;;
35562;SDS011;21665;40.108;18.302;2023-07-09T20:48:20;7.60;;;4.03;;
35562;SDS011;21665;40.108;18.302;2023-07-09T20:50:49;6.80;;;3.70;;
35562;SDS011;21665;40.108;18.302;2023-07-09T20:53:17;13.07;;;4.20;;
35562;SDS011;21665;40.108;18.302;2023-07-09T20:55:45;10.77;;;3.80;;
35562;SDS011;21665;40.108;18.302;2023-07-09T20:58:20;5.40;;;3.75;;
35562;SDS011;21665;40.108;18.302;2023-07-09T21:00:49;7.38;;;4.30;;
35562;SDS011;21665;40.108;18.302;2023-07-09T21:03:19;11.40;;;3.88;;
35562;SDS011;21665;40.108;18.302;2023-07-09T21:05:48;10.18;;;3.72;;
35562;SDS011;21665;40.108;18.302;2023-07-09T21:08:16;7.88;;;4.47;;
35562;SDS011;21665;40.108;18.302;2023-07-09T21:10:44;17.13;;;4.07;;
35562;SDS011;21665;40.108;18.302;2023-07-09T21:13:14;10.45;;;4.50;;
35562;SDS011;21665;40.108;18.302;2023-07-09T21:15:49;9.18;;;3.70;;
35562;SDS011;21665;40.108;18.302;2023-07-09T21:18:19;10.18;;;3.70;;
35562;SDS011;21665;40.108;18.302;2023-07-09T21:20:47;4.80;;;3.72;;
35562;SDS011;21665;40.108;18.302;2023-07-09T21:23:15;9.32;;;3.30;;
35562;SDS011;21665;40.108;18.302;2023-07-09T21:25:48;8.15;;;3.95;;
35562;SDS011;21665;40.108;18.302;2023-07-09T21:28:15;5.43;;;3.42;;
35562;SDS011;21665;40.108;18.302;2023-07-09T21:30:41;7.25;;;3.83;;
35562;SDS011;21665;40.108;18.302;2023-07-09T21:33:13;7.88;;;4.30;;
35562;SDS011;21665;40.108;18.302;2023-07-09T21:35:45;7.82;;;4.20;;
35562;SDS011;21665;40.108;18.302;2023-07-09T21:38:17;7.05;;;4.18;;
35562;SDS011;21665;40.108;18.302;2023-07-09T21:40:46;6.43;;;4.07;;
35562;SDS011;21665;40.108;18.302;2023-07-09T21:43:14;7.85;;;4.30;;
35562;SDS011;21665;40.108;18.302;2023-07-09T21:45:42;10.25;;;4.70;;
35562;SDS011;21665;40.108;18.302;2023-07-09T21:48:10;7.32;;;4.30;;
35562;SDS011;21665;40.108;18.302;2023-07-09T21:50:44;9.82;;;3.58;;
35562;SDS011;21665;40.108;18.302;2023-07-09T21:53:17;6.78;;;4.68;;
35562;SDS011;21665;40.108;18.302;2023-07-09T21:55:46;5.28;;;4.03;;
35562;SDS011;21665;40.108;18.302;2023-07-09T21:58:13;8.05;;;4.47;;
35562;SDS011;21665;40.108;18.302;2023-07-09T22:00:41;9.25;;;4.95;;
35562;SDS011;21665;40.108;18.302;2023-07-09T22:03:09;6.15;;;4.25;;
35562;SDS011;21665;40.108;18.302;2023-07-09T22:05:39;10.75;;;4.20;;
35562;SDS011;21665;40.108;18.302;2023-07-09T22:08:16;8.60;;;4.82;;
35562;SDS011;21665;40.108;18.302;2023-07-09T22:10:45;6.97;;;3.97;;
35562;SDS011;21665;40.108;18.302;2023-07-09T22:13:13;10.07;;;4.00;;
35562;SDS011;21665;40.108;18.302;2023-07-09T22:15:42;7.43;;;3.65;;
35562;SDS011;21665;40.108;18.302;2023-07-09T22:18:12;5.75;;;4.40;;
35562;SDS011;21665;40.108;18.302;2023-07-09T22:20:41;6.38;;;4.00;;
35562;SDS011;21665;40.108;18.302;2023-07-09T22:23:16;8.55;;;3.97;;
35562;SDS011;21665;40.108;18.302;2023-07-09T22:25:47;8.18;;;4.15;;
35562;SDS011;21665;40.108;18.302;2023-07-09T22:28:15;6.10;;;3.75;;
35562;SDS011;21665;40.108;18.302;2023-07-09T22:30:46;9.63;;;4.20;;
35562;SDS011;21665;40.108;18.302;2023-07-09T22:33:16;6.05;;;4.10;;
35562;SDS011;21665;40.108;18.302;2023-07-09T22:35:46;9.98;;;3.97;;
35562;SDS011;21665;40.108;18.302;2023-07-09T22:38:22;6.90;;;4.30;;
35562;SDS011;21665;40.108;18.302;2023-07-09T22:40:50;6.30;;;4.00;;
35562;SDS011;21665;40.108;18.302;2023-07-09T22:43:16;5.72;;;3.92;;
35562;SDS011;21665;40.108;18.302;2023-07-09T22:45:43;7.38;;;3.85;;
35562;SDS011;21665;40.108;18.302;2023-07-09T22:48:16;8.00;;;4.65;;
35562;SDS011;21665;40.108;18.302;2023-07-09T22:50:45;10.57;;;3.95;;
35562;SDS011;21665;40.108;18.302;2023-07-09T22:53:13;8.95;;;4.18;;
35562;SDS011;21665;40.108;18.302;2023-07-09T22:55:42;7.97;;;4.90;;
35562;SDS011;21665;40.108;18.302;2023-07-09T22:58:15;7.75;;;4.85;;
35562;SDS011;21665;40.108;18.302;2023-07-09T23:03:32;11.40;;;5.75;;
35562;SDS011;21665;40.108;18.302;2023-07-09T23:06:14;8.75;;;4.82;;
35562;SDS011;21665;40.108;18.302;2023-07-09T23:08:43;15.13;;;5.53;;
35562;SDS011;21665;40.108;18.302;2023-07-09T23:11:11;8.98;;;4.75;;
35562;SDS011;21665;40.108;18.302;2023-07-09T23:13:40;9.55;;;4.82;;
35562;SDS011;21665;40.108;18.302;2023-07-09T23:16:09;11.05;;;5.75;;
35562;SDS011;21665;40.108;18.302;2023-07-09T23:18:39;15.32;;;6.05;;
35562;SDS011;21665;40.108;18.302;2023-07-09T23:21:17;13.60;;;5.65;;
35562;SDS011;21665;40.108;18.302;2023-07-09T23:23:46;9.98;;;4.55;;
35562;SDS011;21665;40.108;18.302;2023-07-09T23:26:14;13.52;;;5.47;;
35562;SDS011;21665;40.108;18.302;2023-07-09T23:28:41;9.27;;;4.95;;
35562;SDS011;21665;40.108;18.302;2023-07-09T23:31:18;11.18;;;4.93;;